Time;durP1;ratioP1;P1;durP2;ratioP2;P2;SDS_P1;SDS_P2;PMS_P1;PMS_P2;Temp;Humidity;BMP_temperature;BMP_pressure;BME280_temperature;BME280_humidity;BME280_pressure;Samples;Min_cycle;Max_cycle;Signal;HPM_P1;HPM_P2
2024/04/15 00:02:00;;;;;;;;;;;;;;;15.76;100.00;96269.00;5429085;26;19971;-77
2024/04/15 00:04:26;;;;;;;;;;;;;;;15.74;100.00;96269.25;5430026;26;20063;-79
2024/04/15 00:06:51;;;;;;;;;;;;;;;15.72;100.00;96273.22;5429952;26;19950;-72
2024/04/15 00:09:17;;;;;;;;;;;;;;;15.71;100.00;96279.53;5429685;26;19995;-68
2024/04/15 00:11:45;;;;;;;;;;;;;;;15.66;100.00;96275.00;5429613;26;19968;-69
2024/04/15 00:14:10;;;;;;;;;;;;;;;15.58;100.00;96262.25;5429546;26;19959;-69
2024/04/15 00:16:36;;;;;;;;;;;;;;;15.53;100.00;96278.88;5429522;26;19947;-69
2024/04/15 00:19:02;;;;;;;;;;;;;;;15.49;100.00;96277.78;5429402;26;20030;-69
2024/04/15 00:21:28;;;;;;;;;;;;;;;15.48;100.00;96267.47;5432060;26;20018;-70
2024/04/15 00:23:54;;;;;;;;;;;;;;;15.48;100.00;96265.63;5433108;26;19946;-69
2024/04/15 00:26:19;;;;;;;;;;;;;;;15.47;100.00;96255.31;5433174;26;19966;-79
2024/04/15 00:28:45;;;;;;;;;;;;;;;15.47;100.00;96260.59;5433009;26;19955;-71
2024/04/15 00:31:11;;;;;;;;;;;;;;;15.45;100.00;96241.53;5433261;26;19999;-70
2024/04/15 00:33:37;;;;;;;;;;;;;;;15.41;100.00;96238.59;5432952;26;19974;-70
2024/04/15 00:36:03;;;;;;;;;;;;;;;15.40;100.00;96244.94;5432943;26;20020;-70
2024/04/15 00:38:29;;;;;;;;;;;;;;;15.39;100.00;96235.41;5433016;26;19955;-71
2024/04/15 00:40:55;;;;;;;;;;;;;;;15.38;100.00;96239.13;5432873;26;19960;-70
2024/04/15 00:43:21;;;;;;;;;;;;;;;15.39;100.00;96256.56;5432863;26;19983;-70
2024/04/15 00:45:46;;;;;;;;;;;;;;;15.36;100.00;96212.94;5432877;26;19986;-72
2024/04/15 00:48:14;;;;;;;;;;;;;;;15.30;100.00;96240.38;5432825;26;19959;-69
2024/04/15 00:50:41;;;;;;;;;;;;;;;15.29;100.00;96235.38;5432739;26;20106;-69
2024/04/15 00:53:08;;;;;;;;;;;;;;;15.27;100.00;96222.41;5432801;26;19950;-69
2024/04/15 00:55:35;;;;;;;;;;;;;;;15.28;100.00;96225.84;5432734;26;19949;-69
2024/04/15 00:58:02;;;;;;;;;;;;;;;15.29;100.00;96217.66;5432680;26;19958;-69
2024/04/15 01:00:28;;;;;;;;;;;;;;;15.26;100.00;96202.31;5432509;26;19988;-70
2024/04/15 01:02:55;;;;;;;;;;;;;;;15.26;100.00;96222.66;5432655;26;20102;-74
2024/04/15 01:05:21;;;;;;;;;;;;;;;15.24;100.00;96191.19;5432586;26;19978;-76
2024/04/15 01:07:47;;;;;;;;;;;;;;;15.23;100.00;96184.34;5432570;26;19957;-77
2024/04/15 01:10:13;;;;;;;;;;;;;;;15.22;100.00;96188.81;5432493;26;19949;-77
2024/04/15 01:12:40;;;;;;;;;;;;;;;15.21;100.00;96197.78;5432469;26;20164;-80
2024/04/15 01:15:06;;;;;;;;;;;;;;;15.20;100.00;96183.00;5432503;26;19949;-77
2024/04/15 01:17:32;;;;;;;;;;;;;;;15.21;100.00;96197.00;5432396;26;19976;-78
2024/04/15 01:19:58;;;;;;;;;;;;;;;15.18;100.00;96171.06;5432558;26;19969;-73
2024/04/15 01:22:29;;;;;;;;;;;;;;;15.16;100.00;96165.25;5432387;26;19982;-69
2024/04/15 01:24:55;;;;;;;;;;;;;;;15.15;100.00;96190.06;5432180;26;20163;-76
2024/04/15 01:27:21;;;;;;;;;;;;;;;15.13;100.00;96171.84;5432215;26;19976;-76
2024/04/15 01:29:46;;;;;;;;;;;;;;;15.14;100.00;96172.63;5432061;26;19966;-74
2024/04/15 01:32:12;;;;;;;;;;;;;;;15.14;100.00;96177.91;5430879;26;19989;-76
2024/04/15 01:34:38;;;;;;;;;;;;;;;15.12;100.00;96166.78;5432044;26;19962;-74
2024/04/15 01:37:04;;;;;;;;;;;;;;;15.08;100.00;96171.03;5432109;26;20179;-75
2024/04/15 01:39:30;;;;;;;;;;;;;;;15.08;100.00;96174.44;5432084;26;19957;-72
2024/04/15 01:41:55;;;;;;;;;;;;;;;15.06;100.00;96168.63;5431312;26;19987;-75
2024/04/15 01:44:21;;;;;;;;;;;;;;;15.05;100.00;96169.66;5432042;26;19960;-74
2024/04/15 01:46:47;;;;;;;;;;;;;;;15.05;100.00;96176.78;5431791;26;19953;-75
2024/04/15 01:49:13;;;;;;;;;;;;;;;15.03;100.00;96166.47;5431935;26;19953;-73
2024/04/15 01:51:39;;;;;;;;;;;;;;;15.03;100.00;96169.13;5431894;26;19947;-74
2024/04/15 01:54:05;;;;;;;;;;;;;;;15.00;100.00;96167.78;5431798;26;19957;-77
2024/04/15 01:56:30;;;;;;;;;;;;;;;14.99;100.00;96173.31;5431823;26;19963;-78
2024/04/15 01:58:56;;;;;;;;;;;;;;;14.96;100.00;96173.81;5431845;26;19957;-71
2024/04/15 02:01:22;;;;;;;;;;;;;;;14.93;100.00;96169.84;5431776;26;19962;-70
2024/04/15 02:03:48;;;;;;;;;;;;;;;14.87;100.00;96168.22;5431712;26;19957;-70
2024/04/15 02:06:14;;;;;;;;;;;;;;;14.81;100.00;96177.13;5431656;26;19960;-70
2024/04/15 02:08:40;;;;;;;;;;;;;;;14.78;100.00;96177.63;5430854;26;19991;-71
2024/04/15 02:11:06;;;;;;;;;;;;;;;14.78;100.00;96180.25;5431561;26;20060;-70
2024/04/15 02:13:32;;;;;;;;;;;;;;;14.77;100.00;96182.13;5431559;26;19967;-71
2024/04/15 02:15:57;;;;;;;;;;;;;;;14.77;100.00;96178.69;5431542;26;19978;-70
2024/04/15 02:18:23;;;;;;;;;;;;;;;14.77;100.00;96187.41;5431536;26;20088;-73
2024/04/15 02:20:49;;;;;;;;;;;;;;;14.77;100.00;96194.53;5431487;26;19965;-73
2024/04/15 02:23:15;;;;;;;;;;;;;;;14.73;100.00;96199.50;5431466;26;19952;-73
2024/04/15 02:25:41;;;;;;;;;;;;;;;14.71;100.00;96192.88;5431414;26;19961;-74
2024/04/15 02:28:07;;;;;;;;;;;;;;;14.69;100.00;96181.78;5430479;26;19954;-73
2024/04/15 02:30:33;;;;;;;;;;;;;;;14.66;100.00;96184.91;5431216;26;19951;-74
2024/04/15 02:32:59;;;;;;;;;;;;;;;14.58;100.00;96165.06;5431264;26;20023;-73
2024/04/15 02:35:25;;;;;;;;;;;;;;;14.54;100.00;96182.41;5431358;26;19970;-78
2024/04/15 02:37:51;;;;;;;;;;;;;;;14.52;100.00;96171.31;5431289;26;20239;-75
2024/04/15 02:40:16;;;;;;;;;;;;;;;14.50;100.00;96155.72;5431193;26;20088;-77
2024/04/15 02:42:42;;;;;;;;;;;;;;;14.49;100.00;96133.03;5430900;26;19976;-79
2024/04/15 02:45:08;;;;;;;;;;;;;;;14.49;100.00;96156.78;5431290;26;19963;-77
2024/04/15 02:47:34;;;;;;;;;;;;;;;14.49;100.00;96158.59;5430254;26;19980;-76
2024/04/15 02:50:00;;;;;;;;;;;;;;;14.49;100.00;96163.88;5431001;26;19956;-76
2024/04/15 02:52:26;;;;;;;;;;;;;;;14.49;100.00;96162.03;5431076;26;20203;-76
2024/04/15 02:54:51;;;;;;;;;;;;;;;14.49;100.00;96154.13;5431003;26;20164;-76
2024/04/15 02:57:17;;;;;;;;;;;;;;;14.49;100.00;96159.41;5431035;26;19957;-77
2024/04/15 02:59:43;;;;;;;;;;;;;;;14.46;100.00;96161.75;5430842;26;19957;-76
2024/04/15 03:02:09;;;;;;;;;;;;;;;14.45;100.00;96166.22;5430889;26;19994;-77
2024/04/15 03:04:35;;;;;;;;;;;;;;;14.42;100.00;96142.97;5430884;26;19942;-79
2024/04/15 03:07:00;;;;;;;;;;;;;;;14.41;100.00;96155.38;5430890;26;19998;-76
2024/04/15 03:09:26;;;;;;;;;;;;;;;14.40;100.00;96137.13;5430665;26;19952;-79
2024/04/15 03:11:52;;;;;;;;;;;;;;;14.40;100.00;96145.88;5430745;26;19962;-72
2024/04/15 03:14:18;;;;;;;;;;;;;;;14.43;100.00;96160.41;5430648;26;19978;-70
2024/04/15 03:16:44;;;;;;;;;;;;;;;14.41;100.00;96163.28;5430558;26;19961;-71
2024/04/15 03:19:10;;;;;;;;;;;;;;;14.38;100.00;96161.16;5430568;26;19963;-69
2024/04/15 03:21:36;;;;;;;;;;;;;;;14.33;100.00;96133.91;5430578;26;19950;-70
2024/04/15 03:24:02;;;;;;;;;;;;;;;14.30;100.00;96132.59;5430489;26;20137;-70
2024/04/15 03:26:28;;;;;;;;;;;;;;;14.27;100.00;96122.50;5430498;26;19956;-70
2024/04/15 03:28:54;;;;;;;;;;;;;;;14.27;100.00;96108.53;5430389;26;19978;-70
2024/04/15 03:31:20;;;;;;;;;;;;;;;14.23;100.00;96081.84;5430317;26;19956;-74
2024/04/15 03:33:46;;;;;;;;;;;;;;;14.20;100.00;96098.97;5430210;26;20001;-78
2024/04/15 03:36:11;;;;;;;;;;;;;;;14.18;100.00;96106.34;5430286;26;19975;-76
2024/04/15 03:38:37;;;;;;;;;;;;;;;14.17;100.00;96111.84;5430208;26;19971;-76
2024/04/15 03:41:03;;;;;;;;;;;;;;;14.15;100.00;96132.41;5430286;26;19949;-76
2024/04/15 03:43:29;;;;;;;;;;;;;;;14.13;100.00;96089.66;5430143;26;19960;-74
2024/04/15 03:45:55;;;;;;;;;;;;;;;14.07;100.00;96069.56;5430171;26;19981;-75
2024/04/15 03:48:21;;;;;;;;;;;;;;;14.05;100.00;96098.03;5429188;26;19982;-76
2024/04/15 03:50:46;;;;;;;;;;;;;;;14.04;100.00;96107.00;5429820;26;19970;-70
2024/04/15 03:53:12;;;;;;;;;;;;;;;14.01;100.00;96100.38;5429922;26;19978;-70
2024/04/15 03:55:38;;;;;;;;;;;;;;;13.99;100.00;96090.06;5431103;26;19963;-69
2024/04/15 03:58:04;;;;;;;;;;;;;;;13.99;100.00;96091.91;5433501;26;20111;-69
2024/04/15 04:00:30;;;;;;;;;;;;;;;13.98;100.00;96090.31;5433381;26;20050;-69
2024/04/15 04:02:56;;;;;;;;;;;;;;;13.95;100.00;96099.50;5432475;26;19971;-69
2024/04/15 04:05:21;;;;;;;;;;;;;;;13.95;100.00;96109.28;5433309;26;19957;-69
2024/04/15 04:07:47;;;;;;;;;;;;;;;13.91;100.00;96097.63;5433342;26;19951;-80
2024/04/15 04:10:14;;;;;;;;;;;;;;;13.89;100.00;96094.44;5433407;26;19999;-69
2024/04/15 04:12:40;;;;;;;;;;;;;;;13.89;100.00;96112.91;5433219;26;20183;-69
2024/04/15 04:15:06;;;;;;;;;;;;;;;13.86;100.00;96102.81;5433254;26;19953;-69
2024/04/15 04:17:32;;;;;;;;;;;;;;;13.81;100.00;96095.66;5433161;26;19952;-70
2024/04/15 04:19:58;;;;;;;;;;;;;;;13.77;100.00;96098.03;5433161;26;19967;-69
2024/04/15 04:22:24;;;;;;;;;;;;;;;13.75;100.00;96086.94;5433375;26;19951;-69
2024/04/15 04:24:49;;;;;;;;;;;;;;;13.75;100.00;96102.75;5433273;26;19961;-73
2024/04/15 04:27:15;;;;;;;;;;;;;;;13.71;100.00;96099.00;5433012;26;19976;-70
2024/04/15 04:29:41;;;;;;;;;;;;;;;13.67;100.00;96095.25;5432891;26;19963;-70
2024/04/15 04:32:07;;;;;;;;;;;;;;;13.62;100.00;96089.13;5433234;26;19945;-70
2024/04/15 04:34:36;;;;;;;;;;;;;;;13.58;100.00;96100.13;5433047;26;19955;-71
2024/04/15 04:37:02;;;;;;;;;;;;;;;13.54;100.00;96109.59;5432867;26;19961;-70
2024/04/15 04:39:28;;;;;;;;;;;;;;;13.53;100.00;96100.09;5433120;26;19955;-70
2024/04/15 04:41:53;;;;;;;;;;;;;;;13.52;100.00;96106.41;5433007;26;19965;-70
2024/04/15 04:44:19;;;;;;;;;;;;;;;13.53;100.00;96118.53;5433107;26;19984;-75
2024/04/15 04:46:48;;;;;;;;;;;;;;;13.54;100.00;96121.97;5432700;26;19954;-72
2024/04/15 04:49:14;;;;;;;;;;;;;;;13.54;100.00;96114.88;5432666;26;19973;-72
2024/04/15 04:51:40;;;;;;;;;;;;;;;13.55;100.00;96120.94;5432846;26;20162;-72
2024/04/15 04:54:06;;;;;;;;;;;;;;;13.55;100.00;96123.56;5432717;26;19970;-72
2024/04/15 04:56:31;;;;;;;;;;;;;;;13.55;100.00;96124.34;5431993;26;20158;-71
2024/04/15 04:58:57;;;;;;;;;;;;;;;13.54;100.00;96127.22;5432541;26;19983;-70
2024/04/15 05:01:23;;;;;;;;;;;;;;;13.53;100.00;96130.91;5431941;26;19955;-71
2024/04/15 05:03:50;;;;;;;;;;;;;;;13.48;100.00;96110.59;5432561;26;19980;-72
2024/04/15 05:06:17;;;;;;;;;;;;;;;13.47;100.00;96119.50;5432346;26;19970;-73
2024/04/15 05:08:44;;;;;;;;;;;;;;;13.47;100.00;96118.72;5432472;26;19988;-72
2024/04/15 05:11:10;;;;;;;;;;;;;;;13.47;100.00;96116.88;5432401;26;19977;-72
2024/04/15 05:13:36;;;;;;;;;;;;;;;13.46;100.00;96102.13;5432351;26;19947;-74
2024/04/15 05:16:02;;;;;;;;;;;;;;;13.44;100.00;96111.28;5432357;26;19955;-72
2024/04/15 05:18:28;;;;;;;;;;;;;;;13.40;100.00;96109.16;5432352;26;19999;-72
2024/04/15 05:20:54;;;;;;;;;;;;;;;13.39;100.00;96125.97;5431380;26;19993;-70
2024/04/15 05:23:19;;;;;;;;;;;;;;;13.38;100.00;96115.72;5432320;26;19959;-83
2024/04/15 05:25:45;;;;;;;;;;;;;;;13.34;100.00;96128.56;5432330;26;20093;-82
2024/04/15 05:28:11;;;;;;;;;;;;;;;13.35;100.00;96140.66;5432291;26;20160;-85
2024/04/15 05:30:37;;;;;;;;;;;;;;;13.31;100.00;96142.22;5432116;26;20078;-78
2024/04/15 05:33:03;;;;;;;;;;;;;;;13.27;100.00;96138.44;5432036;26;19962;-79
2024/04/15 05:35:29;;;;;;;;;;;;;;;13.24;100.00;96114.44;5432180;26;19986;-80
2024/04/15 05:37:55;;;;;;;;;;;;;;;13.20;100.00;96116.75;5431343;26;19954;-71
2024/04/15 05:40:20;;;;;;;;;;;;;;;13.20;100.00;96111.47;5432108;26;19947;-69
2024/04/15 05:42:46;;;;;;;;;;;;;;;13.20;100.00;96122.81;5432218;26;19970;-69
2024/04/15 05:45:12;;;;;;;;;;;;;;;13.24;100.00;96130.22;5432052;26;20024;-72
2024/04/15 05:47:38;;;;;;;;;;;;;;;13.25;100.00;96130.00;5431873;26;20014;-70
2024/04/15 05:50:04;;;;;;;;;;;;;;;13.25;100.00;96111.56;5431912;26;19963;-70
2024/04/15 05:52:30;;;;;;;;;;;;;;;13.28;100.00;96131.34;5431959;26;19950;-69
2024/04/15 05:54:56;;;;;;;;;;;;;;;13.31;100.00;96136.13;5431827;26;19954;-69
2024/04/15 05:57:21;;;;;;;;;;;;;;;13.33;100.00;96137.50;5431867;26;19959;-71
2024/04/15 05:59:47;;;;;;;;;;;;;;;13.35;100.00;96145.94;5431776;26;19964;-69
2024/04/15 06:02:13;;;;;;;;;;;;;;;13.38;100.00;96149.94;5431828;26;19961;-70
2024/04/15 06:04:39;;;;;;;;;;;;;;;13.40;100.00;96156.56;5431684;26;19961;-70
2024/04/15 06:07:05;;;;;;;;;;;;;;;13.41;100.00;96154.72;5431668;26;20034;-69
2024/04/15 06:09:32;;;;;;;;;;;;;;;13.43;100.00;96160.53;5431647;26;19958;-69
2024/04/15 06:11:58;;;;;;;;;;;;;;;13.44;100.00;96150.78;5431540;26;19960;-69
2024/04/15 06:14:24;;;;;;;;;;;;;;;13.48;100.00;96154.53;5431606;26;19982;-71
2024/04/15 06:16:50;;;;;;;;;;;;;;;13.49;100.00;96156.94;5431552;26;19965;-72
2024/04/15 06:19:15;;;;;;;;;;;;;;;13.50;100.00;96152.47;5430783;26;19968;-72
2024/04/15 06:21:44;;;;;;;;;;;;;;;13.45;100.00;96145.28;5431541;26;19947;-71
2024/04/15 06:24:10;;;;;;;;;;;;;;;13.39;100.00;96136.50;5431483;26;19960;-73
2024/04/15 06:26:36;;;;;;;;;;;;;;;13.37;100.00;96133.31;5431437;26;20027;-72
2024/04/15 06:29:02;;;;;;;;;;;;;;;13.37;100.00;96127.28;5431451;26;19954;-72
2024/04/15 06:31:29;;;;;;;;;;;;;;;13.33;100.00;96128.78;5431367;26;19984;-72
2024/04/15 06:33:55;;;;;;;;;;;;;;;13.26;100.00;96112.34;5431282;26;19977;-80
2024/04/15 06:36:21;;;;;;;;;;;;;;;13.24;100.00;96114.44;5431340;26;19959;-81
2024/04/15 06:38:47;;;;;;;;;;;;;;;13.27;100.00;96124.47;5431228;26;19972;-77
2024/04/15 06:41:14;;;;;;;;;;;;;;;13.24;100.00;96117.06;5431420;26;19992;-80
2024/04/15 06:43:40;;;;;;;;;;;;;;;13.23;100.00;96121.53;5431078;26;20157;-81
2024/04/15 06:46:06;;;;;;;;;;;;;;;13.24;100.00;96123.13;5431108;26;19981;-80
2024/04/15 06:48:31;;;;;;;;;;;;;;;13.27;100.00;96127.91;5431083;26;19959;-79
2024/04/15 06:50:57;;;;;;;;;;;;;;;13.30;100.00;96131.94;5430976;26;19951;-72
2024/04/15 06:53:23;;;;;;;;;;;;;;;13.30;100.00;96137.19;5431060;26;19983;-69
2024/04/15 06:55:49;;;;;;;;;;;;;;;13.25;100.00;96114.19;5431040;26;20038;-69
2024/04/15 06:58:15;;;;;;;;;;;;;;;13.26;100.00;96125.53;5431037;26;19948;-69
2024/04/15 07:00:40;;;;;;;;;;;;;;;13.27;100.00;96127.91;5430829;26;20078;-69
2024/04/15 07:03:06;;;;;;;;;;;;;;;13.29;100.00;96125.06;5430131;26;20174;-69
2024/04/15 07:05:33;;;;;;;;;;;;;;;13.31;100.00;96128.25;5430826;26;19966;-69
2024/04/15 07:08:01;;;;;;;;;;;;;;;13.32;100.00;96120.09;5430823;26;19971;-69
2024/04/15 07:10:26;;;;;;;;;;;;;;;13.35;100.00;96134.63;5430752;26;20192;-71
2024/04/15 07:12:52;;;;;;;;;;;;;;;13.42;100.00;96118.63;5429948;26;19963;-71
2024/04/15 07:15:18;;;;;;;;;;;;;;;13.44;100.00;96109.47;5430674;26;19981;-72
2024/04/15 07:17:44;;;;;;;;;;;;;;;13.45;100.00;96111.06;5430596;26;19956;-71
2024/04/15 07:20:10;;;;;;;;;;;;;;;13.42;100.00;96113.38;5430613;26;19975;-71
2024/04/15 07:22:36;;;;;;;;;;;;;;;13.36;100.00;96117.78;5430563;26;19968;-71
2024/04/15 07:25:02;;;;;;;;;;;;;;;13.30;100.00;96126.66;5430515;26;19972;-71
2024/04/15 07:27:30;;;;;;;;;;;;;;;13.29;100.00;96132.94;5430418;26;19960;-70
2024/04/15 07:29:56;;;;;;;;;;;;;;;13.30;100.00;96142.47;5430773;26;19980;-71
2024/04/15 07:32:22;;;;;;;;;;;;;;;13.32;100.00;96138.53;5433895;26;19956;-69
2024/04/15 07:34:48;;;;;;;;;;;;;;;13.37;100.00;96133.31;5433317;26;19949;-69
2024/04/15 07:37:14;;;;;;;;;;;;;;;13.47;100.00;96122.13;5433835;26;19975;-69
2024/04/15 07:39:46;;;;;;;;;;;;;;;13.55;100.00;96108.53;5433875;26;19947;-69
2024/04/15 07:42:12;;;;;;;;;;;;;;;13.64;100.00;96084.41;5433321;26;19961;-69
2024/04/15 07:44:38;;;;;;;;;;;;;;;13.67;100.00;96090.00;5433737;26;19963;-69
2024/04/15 07:47:04;;;;;;;;;;;;;;;13.73;100.00;96096.09;5433727;26;19951;-68
2024/04/15 07:49:30;;;;;;;;;;;;;;;13.80;100.00;96088.81;5433733;26;19969;-78
2024/04/15 07:51:56;;;;;;;;;;;;;;;13.88;100.00;96085.75;5433592;26;20071;-78
2024/04/15 07:54:22;;;;;;;;;;;;;;;13.92;100.00;96086.84;5433647;26;19950;-77
2024/04/15 07:56:48;;;;;;;;;;;;;;;14.00;100.00;96075.84;5433566;26;19967;-78
2024/04/15 07:59:14;;;;;;;;;;;;;;;14.06;100.00;96058.22;5433462;26;20025;-77
2024/04/15 08:01:40;;;;;;;;;;;;;;;14.09;100.00;96063.03;5433466;26;19996;-78
2024/04/15 08:04:06;;;;;;;;;;;;;;;14.12;100.00;96048.53;5433437;26;20065;-76
2024/04/15 08:06:32;;;;;;;;;;;;;;;14.26;100.00;96043.63;5432661;26;19951;-71
2024/04/15 08:08:58;;;;;;;;;;;;;;;14.33;100.00;96062.69;5432711;26;19987;-71
2024/04/15 08:11:24;;;;;;;;;;;;;;;14.35;100.00;96066.66;5433293;26;19952;-71
2024/04/15 08:13:50;;;;;;;;;;;;;;;14.39;100.00;96078.31;5433266;26;19960;-74
2024/04/15 08:16:16;;;;;;;;;;;;;;;14.38;100.00;96086.47;5433254;26;20156;-71
2024/04/15 08:18:42;;;;;;;;;;;;;;;14.35;100.00;96071.16;5433293;26;19957;-71
2024/04/15 08:21:08;;;;;;;;;;;;;;;14.34;100.00;96085.38;5433171;26;19974;-71
2024/04/15 08:23:34;;;;;;;;;;;;;;;14.32;100.00;96061.91;5433230;26;20148;-69
2024/04/15 08:25:59;;;;;;;;;;;;;;;14.26;100.00;96047.09;5433402;26;19960;-75
2024/04/15 08:28:25;;;;;;;;;;;;;;;14.28;100.00;96065.28;5433002;26;19960;-75
2024/04/15 08:30:51;;;;;;;;;;;;;;;14.33;100.00;96078.53;5432990;26;19962;-75
2024/04/15 08:33:17;;;;;;;;;;;;;;;14.28;100.00;96063.47;5431904;26;19979;-76
2024/04/15 08:35:43;;;;;;;;;;;;;;;14.21;100.00;96033.84;5432897;26;20029;-75
2024/04/15 08:38:09;;;;;;;;;;;;;;;14.19;100.00;96042.03;5432988;26;20169;-76
2024/04/15 08:40:35;;;;;;;;;;;;;;;14.21;100.00;96036.47;5432793;26;19949;-76
2024/04/15 08:43:03;;;;;;;;;;;;;;;14.34;100.00;96062.47;5432499;26;19962;-69
2024/04/15 08:45:30;;;;;;;;;;;;;;;14.52;100.00;96031.47;5433079;26;19955;-69
2024/04/15 08:47:57;;;;;;;;;;;;;;;14.62;100.00;96042.13;5432741;26;19971;-69
2024/04/15 08:50:25;;;;;;;;;;;;;;;14.71;100.00;96016.03;5432726;26;19970;-71
2024/04/15 08:52:52;;;;;;;;;;;;;;;14.79;100.00;95995.25;5432787;26;20168;-71
2024/04/15 08:55:18;;;;;;;;;;;;;;;14.98;100.00;95992.19;5432779;26;19953;-71
2024/04/15 08:57:48;;;;;;;;;;;;;;;15.03;100.00;95973.69;5432661;26;20106;-71
2024/04/15 09:00:16;;;;;;;;;;;;;;;15.06;100.00;95989.06;5432659;26;19972;-72
2024/04/15 09:02:42;;;;;;;;;;;;;;;15.15;100.00;96005.19;5432638;26;19959;-79
2024/04/15 09:05:09;;;;;;;;;;;;;;;15.35;100.00;96007.94;5432542;26;20091;-71
2024/04/15 09:07:35;;;;;;;;;;;;;;;15.58;100.00;95979.44;5432560;26;19983;-71
2024/04/15 09:10:01;;;;;;;;;;;;;;;15.62;99.24;95962.81;5432542;26;19970;-71
2024/04/15 09:12:36;;;;;;;;;;;;;;;15.73;100.00;95982.16;5432248;26;20098;-71
2024/04/15 09:15:02;;;;;;;;;;;;;;;16.16;100.00;95964.19;5432492;26;20080;-71
2024/04/15 09:17:30;;;;;;;;;;;;;;;16.42;95.35;95945.66;5432352;26;19961;-68
2024/04/15 09:19:56;;;;;;;;;;;;;;;16.35;94.76;95945.94;5431293;26;20088;-72
2024/04/15 09:22:29;;;;;;;;;;;;;;;16.29;94.38;95947.00;5432403;26;20160;-72
2024/04/15 09:24:55;;;;;;;;;;;;;;;16.32;96.34;95957.06;5432282;26;19980;-73
2024/04/15 09:27:24;;;;;;;;;;;;;;;16.31;95.04;95944.88;5432232;26;19970;-73
2024/04/15 09:29:50;;;;;;;;;;;;;;;16.30;94.77;95953.88;5432103;26;19976;-73
2024/04/15 09:32:17;;;;;;;;;;;;;;;16.16;93.15;95943.03;5432165;26;20153;-73
2024/04/15 09:34:43;;;;;;;;;;;;;;;16.00;95.97;95954.66;5432110;26;19960;-73
2024/04/15 09:37:09;;;;;;;;;;;;;;;15.85;92.17;95934.31;5430601;26;20061;-72
2024/04/15 09:39:36;;;;;;;;;;;;;;;15.76;95.81;95962.34;5432000;26;20058;-74
2024/04/15 09:42:02;;;;;;;;;;;;;;;15.67;94.20;95962.03;5432001;26;19978;-73
2024/04/15 09:44:31;;;;;;;;;;;;;;;15.58;95.53;95967.03;5432313;26;19950;-73
2024/04/15 09:47:02;;;;;;;;;;;;;;;15.55;91.43;95932.41;5431958;26;19970;-72
2024/04/15 09:49:29;;;;;;;;;;;;;;;15.62;94.37;95943.50;5432110;26;19973;-73
2024/04/15 09:51:59;;;;;;;;;;;;;;;15.67;91.21;95916.31;5431967;26;19954;-73
2024/04/15 09:54:30;;;;;;;;;;;;;;;15.67;89.33;95903.09;5430697;26;20081;-73
2024/04/15 09:57:03;;;;;;;;;;;;;;;15.62;91.36;95903.84;5431895;26;19955;-71
2024/04/15 09:59:32;;;;;;;;;;;;;;;15.55;89.72;95904.13;5431878;26;20063;-71
2024/04/15 10:01:59;;;;;;;;;;;;;;;15.45;90.31;95895.38;5431753;26;20017;-68
2024/04/15 10:04:26;;;;;;;;;;;;;;;15.35;91.45;95896.97;5431727;26;19953;-70
2024/04/15 10:06:57;;;;;;;;;;;;;;;15.33;93.81;95909.63;5431725;26;20172;-70
2024/04/15 10:09:23;;;;;;;;;;;;;;;15.37;91.64;95902.78;5430520;26;19951;-70
2024/04/15 10:11:50;;;;;;;;;;;;;;;15.42;93.27;95907.28;5431556;26;20188;-71
2024/04/15 10:14:16;;;;;;;;;;;;;;;15.47;97.86;95931.06;5431524;26;19976;-72
2024/04/15 10:16:46;;;;;;;;;;;;;;;15.56;97.52;95926.84;5431527;26;19969;-76
2024/04/15 10:19:21;;;;;;;;;;;;;;;15.60;94.03;95893.56;5431476;26;19980;-77
2024/04/15 10:21:47;;;;;;;;;;;;;;;15.69;94.13;95893.03;5431493;26;19949;-77
2024/04/15 10:24:13;;;;;;;;;;;;;;;15.74;90.22;95869.28;5431478;26;19988;-76
2024/04/15 10:26:41;;;;;;;;;;;;;;;15.77;87.22;95858.16;5431339;26;20161;-79
2024/04/15 10:29:26;;;;;;;;;;;;;;;15.81;86.49;95859.22;5431298;26;19959;-77
2024/04/15 10:31:53;;;;;;;;;;;;;;;15.96;87.67;95861.09;5431253;26;19953;-77
2024/04/15 10:34:22;;;;;;;;;;;;;;;16.13;86.41;95848.34;5431287;26;19977;-72
2024/04/15 10:36:52;;;;;;;;;;;;;;;16.51;86.72;95845.34;5430217;26;19956;-72
2024/04/15 10:39:18;;;;;;;;;;;;;;;16.89;79.67;95803.38;5431265;26;19978;-73
2024/04/15 10:41:45;;;;;;;;;;;;;;;17.07;81.12;95799.28;5431187;26;19981;-71
2024/04/15 10:44:11;;;;;;;;;;;;;;;17.17;81.13;95793.91;5431035;26;19955;-72
2024/04/15 10:46:40;;;;;;;;;;;;;;;17.08;73.35;95763.78;5431146;26;19954;-72
2024/04/15 10:49:06;;;;;;;;;;;;;;;16.92;78.49;95792.22;5431013;26;20082;-72
2024/04/15 10:51:32;;;;;;;;;;;;;;;16.82;75.90;95779.84;5430910;26;19989;-74
2024/04/15 10:53:58;;;;;;;;;;;;;;;16.80;76.17;95772.19;5431006;26;19953;-73
2024/04/15 10:56:24;;;;;;;;;;;;;;;16.76;78.57;95784.34;5431048;26;19981;-73
2024/04/15 10:58:50;;;;;;;;;;;;;;;16.67;76.30;95761.34;5430886;26;19981;-73
2024/04/15 11:01:16;;;;;;;;;;;;;;;16.48;77.13;95783.13;5430928;26;19962;-70
2024/04/15 11:03:46;;;;;;;;;;;;;;;16.28;75.72;95760.22;5430675;26;19984;-74
2024/04/15 11:06:16;;;;;;;;;;;;;;;16.04;78.04;95770.59;5430899;26;19986;-73
2024/04/15 11:08:42;;;;;;;;;;;;;;;15.89;81.06;95789.94;5430677;26;19973;-72
2024/04/15 11:11:08;;;;;;;;;;;;;;;15.76;84.14;95799.22;5430845;26;19991;-73
2024/04/15 11:13:35;;;;;;;;;;;;;;;15.70;86.89;95802.09;5430716;26;20158;-70
2024/04/15 11:16:01;;;;;;;;;;;;;;;15.54;87.77;95803.94;5430681;26;19996;-69
2024/04/15 11:18:27;;;;;;;;;;;;;;;15.43;87.28;95801.34;5430573;26;20233;-71
2024/04/15 11:21:01;;;;;;;;;;;;;;;15.33;85.66;95795.22;5430563;26;19966;-70
2024/04/15 11:23:27;;;;;;;;;;;;;;;15.25;89.88;95814.28;5430538;26;19961;-70
2024/04/15 11:25:54;;;;;;;;;;;;;;;15.16;88.79;95814.78;5430442;26;20061;-70
2024/04/15 11:28:20;;;;;;;;;;;;;;;15.12;93.65;95826.94;5430441;26;19964;-71
2024/04/15 11:30:46;;;;;;;;;;;;;;;15.08;93.78;95819.78;5430258;26;19963;-70
2024/04/15 11:33:13;;;;;;;;;;;;;;;15.05;95.20;95825.56;5430452;26;19958;-71
2024/04/15 11:35:50;;;;;;;;;;;;;;;15.04;98.67;95827.44;5430271;26;19976;-70
2024/04/15 11:38:16;;;;;;;;;;;;;;;15.01;97.56;95820.84;5429230;26;19954;-71
2024/04/15 11:40:42;;;;;;;;;;;;;;;15.00;96.28;95805.25;5429151;26;19983;-70
2024/04/15 11:43:08;;;;;;;;;;;;;;;15.21;100.00;95806.84;5430265;26;19951;-71
2024/04/15 11:45:34;;;;;;;;;;;;;;;15.67;95.98;95789.44;5430043;26;19949;-77
2024/04/15 11:47:59;;;;;;;;;;;;;;;16.15;95.25;95768.75;5430135;26;19957;-75
2024/04/15 11:50:25;;;;;;;;;;;;;;;16.63;88.69;95719.56;5430056;26;19972;-71
2024/04/15 11:52:55;;;;;;;;;;;;;;;16.99;84.63;95697.38;5430071;26;19959;-71
2024/04/15 11:55:21;;;;;;;;;;;;;;;17.17;83.34;95682.66;5430151;26;19962;-71
2024/04/15 11:57:47;;;;;;;;;;;;;;;17.10;80.82;95675.03;5429848;26;20027;-70
2024/04/15 12:00:14;;;;;;;;;;;;;;;17.00;80.44;95667.16;5429931;26;19956;-70
2024/04/15 12:02:40;;;;;;;;;;;;;;;16.76;79.90;95665.19;5429815;26;19979;-71
2024/04/15 12:05:06;;;;;;;;;;;;;;;16.72;80.73;95658.09;5429560;26;20190;-71
2024/04/15 12:07:33;;;;;;;;;;;;;;;16.75;82.24;95668.13;5429606;26;19984;-77
2024/04/15 12:09:58;;;;;;;;;;;;;;;17.19;82.52;95662.75;5429695;26;19956;-77
2024/04/15 12:12:24;;;;;;;;;;;;;;;17.53;76.33;95624.78;5429697;26;20015;-76
2024/04/15 12:14:50;;;;;;;;;;;;;;;17.59;77.86;95630.81;5429513;26;19986;-76
2024/04/15 12:17:17;;;;;;;;;;;;;;;17.67;79.70;95618.81;5431007;26;19991;-78
2024/04/15 12:19:43;;;;;;;;;;;;;;;17.63;75.72;95600.03;5433008;26;19962;-78
2024/04/15 12:22:08;;;;;;;;;;;;;;;17.47;77.37;95596.78;5433102;26;19958;-76
2024/04/15 12:24:34;;;;;;;;;;;;;;;17.32;80.17;95599.56;5433061;26;19965;-74
2024/04/15 12:27:00;;;;;;;;;;;;;;;17.17;79.62;95600.50;5432203;26;20016;-77
2024/04/15 12:29:26;;;;;;;;;;;;;;;16.90;79.15;95595.72;5433179;26;19981;-76
2024/04/15 12:31:52;;;;;;;;;;;;;;;16.58;86.27;95648.09;5432936;26;19963;-80
2024/04/15 12:34:18;;;;;;;;;;;;;;;16.23;96.57;95679.03;5433106;26;20004;-85
2024/04/15 12:36:44;;;;;;;;;;;;;;;15.92;100.00;95693.44;5433116;26;19974;-91